createdAt,value
2023-05-14T01:04:04.692Z,98186.00
2023-05-14T01:07:00.709Z,98187.70
2023-05-14T01:09:47.830Z,98184.65
2023-05-14T01:12:24.916Z,98183.90
2023-05-14T01:15:01.839Z,98181.75
2023-05-14T01:17:33.360Z,98182.98
2023-05-14T01:20:01.149Z,98185.34
2023-05-14T01:22:28.322Z,98184.11
2023-05-14T01:24:55.539Z,98183.53
2023-05-14T01:27:44.570Z,98184.68
2023-05-14T01:30:18.996Z,98189.83
2023-05-14T01:32:51.806Z,98182.58
2023-05-14T01:35:23.259Z,98178.04
2023-05-14T01:37:51.275Z,98176.95
2023-05-14T01:40:19.950Z,98174.35
2023-05-14T01:42:47.628Z,98173.09
2023-05-14T01:45:15.587Z,98173.52
2023-05-14T01:47:42.970Z,98174.91
2023-05-14T01:50:11.103Z,98173.80
2023-05-14T01:52:39.098Z,98173.89
2023-05-14T01:55:07.134Z,98172.55
2023-05-14T01:57:34.623Z,98172.08
2023-05-14T02:00:02.105Z,98170.55
2023-05-14T02:02:29.289Z,98174.38
2023-05-14T02:04:56.997Z,98171.77
2023-05-14T02:07:24.296Z,98170.33
2023-05-14T02:09:51.557Z,98169.13
2023-05-14T02:12:18.812Z,98164.52
2023-05-14T02:14:46.591Z,98163.69
2023-05-14T02:17:17.006Z,98158.60
2023-05-14T02:19:45.199Z,98159.17
2023-05-14T02:22:13.450Z,98153.91
2023-05-14T02:24:41.671Z,98153.39
2023-05-14T02:27:09.123Z,98149.92
2023-05-14T02:29:36.733Z,98144.13
2023-05-14T02:32:04.340Z,98145.65
2023-05-14T02:34:33.997Z,98143.68
2023-05-14T02:37:01.502Z,98142.08
2023-05-14T02:39:28.811Z,98144.61
2023-05-14T02:41:56.138Z,98145.01
2023-05-14T02:44:23.476Z,98147.37
2023-05-14T02:46:50.809Z,98146.68
2023-05-14T02:49:18.203Z,98142.83
2023-05-14T02:51:45.561Z,98139.05
2023-05-14T02:54:12.871Z,98135.33
2023-05-14T02:56:40.173Z,98137.58
2023-05-14T02:59:07.622Z,98136.32
2023-05-14T03:01:35.554Z,98131.02
2023-05-14T03:04:03.442Z,98131.30
2023-05-14T03:06:32.415Z,98133.13
2023-05-14T03:08:59.791Z,98131.15
2023-05-14T03:11:28.549Z,98128.95
2023-05-14T03:13:56.031Z,98131.27
2023-05-14T03:16:24.973Z,98129.02
2023-05-14T03:18:53.090Z,98127.09
2023-05-14T03:21:20.788Z,98121.73
2023-05-14T03:23:48.076Z,98120.10
2023-05-14T03:26:15.307Z,98120.11
2023-05-14T03:28:42.658Z,98114.39
2023-05-14T03:31:10.074Z,98112.73
2023-05-14T03:33:38.771Z,98113.92
2023-05-14T03:36:06.856Z,98112.05
2023-05-14T03:38:34.198Z,98109.75
2023-05-14T03:41:02.633Z,98102.15
2023-05-14T03:43:31.010Z,98100.54
2023-05-14T03:46:00.133Z,98095.77
2023-05-14T03:48:28.862Z,98095.42
2023-05-14T03:50:57.306Z,98093.77
2023-05-14T03:53:24.679Z,98093.67
2023-05-14T03:55:52.206Z,98092.69
2023-05-14T03:58:19.879Z,98093.29
2023-05-14T04:00:47.458Z,98098.19
2023-05-14T04:03:15.026Z,98099.45
2023-05-14T04:05:42.684Z,98101.16
2023-05-14T04:08:10.063Z,98099.89
2023-05-14T04:10:37.882Z,98095.73
2023-05-14T04:13:05.467Z,98099.63
2023-05-14T04:15:33.866Z,98100.38
2023-05-14T04:18:02.124Z,98097.80
2023-05-14T04:20:29.675Z,98096.41
2023-05-14T04:22:56.938Z,98094.89
2023-05-14T04:25:24.705Z,98095.57
2023-05-14T04:27:52.484Z,98099.89
2023-05-14T04:30:20.118Z,98095.39
2023-05-14T04:32:48.924Z,98088.27
2023-05-14T04:35:16.481Z,98089.39
2023-05-14T04:37:43.848Z,98089.61
2023-05-14T04:40:13.011Z,98092.48
2023-05-14T04:42:40.331Z,98096.96
2023-05-14T04:45:09.152Z,98094.70
2023-05-14T04:47:36.587Z,98093.94
2023-05-14T04:50:04.692Z,98094.41
2023-05-14T04:52:31.984Z,98093.48
2023-05-14T04:54:59.811Z,98092.77
2023-05-14T04:57:27.188Z,98094.64
2023-05-14T04:59:54.610Z,98095.48
2023-05-14T05:02:22.250Z,98094.64
2023-05-14T05:04:50.018Z,98088.75
2023-05-14T05:07:17.454Z,98097.14
2023-05-14T05:09:45.552Z,98099.15
2023-05-14T05:12:13.336Z,98100.36
2023-05-14T05:14:40.477Z,98096.04
2023-05-14T05:17:07.664Z,98091.84
2023-05-14T05:19:43.129Z,98098.03
2023-05-14T05:22:12.169Z,98094.21
2023-05-14T05:24:40.154Z,98090.97
2023-05-14T05:27:07.512Z,98089.82
2023-05-14T05:29:35.798Z,98089.40
2023-05-14T05:32:03.216Z,98087.84
2023-05-14T05:34:30.464Z,98086.06
2023-05-14T05:36:58.168Z,98087.30
2023-05-14T05:39:25.465Z,98080.96
2023-05-14T05:41:52.923Z,98078.90
2023-05-14T05:44:20.821Z,98074.60
2023-05-14T05:46:48.251Z,98072.10
2023-05-14T05:49:15.471Z,98065.55
2023-05-14T05:51:43.867Z,98062.51
2023-05-14T05:54:13.379Z,98060.94
2023-05-14T05:56:40.821Z,98061.67
2023-05-14T05:59:08.506Z,98059.20
2023-05-14T06:01:35.935Z,98065.95
2023-05-14T06:04:04.972Z,98064.90
2023-05-14T06:06:33.915Z,98062.55
2023-05-14T06:09:02.413Z,98064.25
2023-05-14T06:11:29.905Z,98064.98
2023-05-14T06:13:58.069Z,98067.06
2023-05-14T06:16:25.308Z,98063.93
2023-05-14T06:18:56.790Z,98062.20
2023-05-14T06:21:24.307Z,98063.11
2023-05-14T06:23:51.664Z,98061.02
2023-05-14T06:26:19.024Z,98056.17
2023-05-14T06:28:46.285Z,98051.83
2023-05-14T06:31:14.334Z,98056.37
2023-05-14T06:33:41.647Z,98056.24
2023-05-14T06:36:09.348Z,98049.77
2023-05-14T06:38:36.760Z,98046.81
2023-05-14T06:41:04.003Z,98044.46
2023-05-14T06:43:31.764Z,98039.73
2023-05-14T06:45:58.978Z,98038.89
2023-05-14T06:48:28.162Z,98037.02
2023-05-14T06:50:55.891Z,98038.20
2023-05-14T06:53:23.116Z,98037.33
2023-05-14T06:55:51.293Z,98033.73
2023-05-14T06:58:18.662Z,98033.14
2023-05-14T07:00:46.085Z,98028.64
2023-05-14T07:03:13.313Z,98027.13
2023-05-14T07:05:42.290Z,98026.50
2023-05-14T07:08:11.822Z,98026.29
2023-05-14T07:10:39.721Z,98022.38
2023-05-14T07:13:07.178Z,98025.16
2023-05-14T07:15:34.969Z,98021.36
2023-05-14T07:18:02.449Z,98020.67
2023-05-14T07:20:30.795Z,98016.84
2023-05-14T07:22:58.244Z,98014.94
2023-05-14T07:25:25.465Z,98018.49
2023-05-14T07:27:52.754Z,98026.53
2023-05-14T07:30:20.707Z,98026.74
2023-05-14T07:32:48.125Z,98030.71
2023-05-14T07:35:15.322Z,98033.32
2023-05-14T07:37:44.047Z,98028.95
2023-05-14T07:40:11.462Z,98033.33
2023-05-14T07:42:39.820Z,98039.25
2023-05-14T07:45:09.018Z,98042.98
2023-05-14T07:47:36.414Z,98047.73
2023-05-14T07:50:04.043Z,98049.71
2023-05-14T07:52:31.550Z,98046.50
2023-05-14T07:55:01.787Z,98042.05
2023-05-14T07:57:29.082Z,98046.92
2023-05-14T07:59:57.356Z,98044.98
2023-05-14T08:02:24.701Z,98043.71
2023-05-14T08:04:52.117Z,98038.88
2023-05-14T08:07:20.067Z,98028.66
2023-05-14T08:09:47.305Z,98019.28
2023-05-14T08:12:14.813Z,98010.29
2023-05-14T08:14:42.665Z,98012.17
2023-05-14T08:17:10.086Z,97998.80
2023-05-14T08:19:37.407Z,97996.09
2023-05-14T08:22:04.870Z,97993.42
2023-05-14T08:24:32.267Z,97998.83
2023-05-14T08:26:59.553Z,97992.45
2023-05-14T08:29:26.973Z,97984.33
2023-05-14T08:31:54.422Z,97986.08
2023-05-14T08:34:21.776Z,97984.61
2023-05-14T08:36:49.436Z,97989.15
2023-05-14T08:39:16.800Z,97986.58
2023-05-14T08:41:45.385Z,97987.90
2023-05-14T08:44:20.084Z,97979.48
2023-05-14T08:46:50.202Z,97979.62
2023-05-14T08:49:42.311Z,97975.31
2023-05-14T08:52:11.033Z,97968.21
2023-05-14T08:54:38.875Z,97967.11
2023-05-14T08:57:10.089Z,97967.41
2023-05-14T08:59:38.241Z,97965.39
2023-05-14T09:02:07.153Z,97962.98
2023-05-14T09:04:35.444Z,97964.67
2023-05-14T09:07:04.468Z,97962.48
2023-05-14T09:09:32.275Z,97959.15
2023-05-14T09:11:59.993Z,97958.87
2023-05-14T09:14:27.344Z,97951.71
2023-05-14T09:16:55.330Z,97953.91
2023-05-14T09:19:22.774Z,97951.42
2023-05-14T09:21:50.976Z,97941.39
2023-05-14T09:24:26.282Z,97941.37
2023-05-14T09:26:58.712Z,97947.02
2023-05-14T09:29:26.872Z,97950.13
2023-05-14T09:31:55.137Z,97944.01
2023-05-14T09:34:34.649Z,97944.55
2023-05-14T09:37:07.296Z,97944.55
2023-05-14T09:39:39.097Z,97936.73
2023-05-14T09:42:06.747Z,97933.39
2023-05-14T09:44:34.132Z,97930.09
2023-05-14T09:47:01.758Z,97929.01
2023-05-14T09:49:29.009Z,97928.09
2023-05-14T09:51:58.293Z,97931.63
2023-05-14T09:54:27.670Z,97927.91
2023-05-14T09:56:55.833Z,97924.88
2023-05-14T09:59:23.378Z,97924.86
2023-05-14T10:01:51.971Z,97926.95
2023-05-14T10:04:20.161Z,97924.39
2023-05-14T10:06:52.404Z,97921.02
2023-05-14T10:09:23.947Z,97914.98
2023-05-14T10:11:54.574Z,97906.42
2023-05-14T10:14:43.769Z,97905.56
2023-05-14T10:17:18.899Z,97905.09
2023-05-14T10:19:57.842Z,97903.96
2023-05-14T10:22:31.707Z,97899.86
2023-05-14T10:24:59.805Z,97896.33
2023-05-14T10:27:27.357Z,97895.24
2023-05-14T10:29:56.398Z,97893.49
2023-05-14T10:32:26.170Z,97888.98
2023-05-14T10:34:54.165Z,97883.50
2023-05-14T10:37:26.447Z,97881.29
2023-05-14T10:39:55.583Z,97880.30
2023-05-14T10:42:36.605Z,97872.73
2023-05-14T10:45:09.247Z,97864.98
2023-05-14T10:47:42.447Z,97869.31
2023-05-14T10:50:12.372Z,97859.17
2023-05-14T10:52:45.999Z,97858.14
2023-05-14T10:55:15.618Z,97857.95
2023-05-14T10:57:46.677Z,97861.81
2023-05-14T11:00:15.161Z,97860.38
2023-05-14T11:02:45.120Z,97854.43
2023-05-14T11:05:16.262Z,97848.39
2023-05-14T11:07:49.500Z,97849.94
2023-05-14T11:10:22.676Z,97844.45
2023-05-14T11:12:51.701Z,97843.43
2023-05-14T11:15:24.113Z,97844.19
2023-05-14T11:17:53.314Z,97835.89
2023-05-14T11:20:22.793Z,97841.73
2023-05-14T11:22:52.048Z,97837.95
2023-05-14T11:25:19.426Z,97840.32
2023-05-14T11:27:48.963Z,97837.95
2023-05-14T11:30:18.509Z,97837.82
2023-05-14T11:32:47.874Z,97826.77
2023-05-14T11:35:15.954Z,97826.36
2023-05-14T11:37:44.168Z,97825.77
2023-05-14T11:40:19.286Z,97824.77
2023-05-14T11:42:47.534Z,97824.30
2023-05-14T11:45:26.012Z,97822.00
2023-05-14T11:47:57.266Z,97821.02
2023-05-14T11:50:24.870Z,97825.27
2023-05-14T11:52:57.286Z,97832.14
2023-05-14T11:55:24.876Z,97831.03
2023-05-14T11:57:52.697Z,97831.76
2023-05-14T12:00:22.420Z,97820.60
2023-05-14T12:02:50.453Z,97815.57
2023-05-14T12:05:17.954Z,97816.88
2023-05-14T12:07:46.727Z,97813.39
2023-05-14T12:10:14.312Z,97811.93
2023-05-14T12:12:45.561Z,97804.92
2023-05-14T12:15:14.375Z,97804.78
2023-05-14T12:17:42.431Z,97791.42
2023-05-14T12:20:11.802Z,97792.47
2023-05-14T12:22:39.803Z,97791.13
2023-05-14T12:25:15.735Z,97785.86
2023-05-14T12:27:45.113Z,97779.52
2023-05-14T12:32:53.230Z,97768.02
2023-05-14T12:35:33.494Z,97765.20
2023-05-14T12:38:00.909Z,97761.89
2023-05-14T12:40:28.868Z,97759.73
2023-05-14T12:42:56.875Z,97753.18
2023-05-14T12:45:24.882Z,97748.29
2023-05-14T12:47:52.613Z,97749.16
2023-05-14T12:50:21.637Z,97750.41
2023-05-14T12:52:49.953Z,97745.55
2023-05-14T12:55:17.613Z,97738.50
2023-05-14T12:57:45.094Z,97734.61
2023-05-14T13:00:14.128Z,97731.42
2023-05-14T13:02:43.627Z,97733.02
2023-05-14T13:05:13.137Z,97727.68
2023-05-14T13:07:40.679Z,97726.10
2023-05-14T13:10:09.469Z,97722.46
2023-05-14T13:12:41.757Z,97720.58
2023-05-14T13:15:12.557Z,97724.50
2023-05-14T13:17:42.341Z,97721.18
2023-05-14T13:20:10.413Z,97716.04
2023-05-14T13:22:38.928Z,97715.02
2023-05-14T13:25:12.723Z,97712.67
2023-05-14T13:27:55.308Z,97708.55
2023-05-14T13:30:29.089Z,97711.16
2023-05-14T13:32:57.292Z,97709.65
2023-05-14T13:35:24.884Z,97714.63
2023-05-14T13:37:52.726Z,97716.14
2023-05-14T13:40:21.366Z,97713.73
2023-05-14T13:43:00.913Z,97713.13
2023-05-14T13:45:28.394Z,97695.67
2023-05-14T13:47:57.240Z,97684.97
2023-05-14T13:50:24.567Z,97684.18
2023-05-14T13:52:52.777Z,97677.83
2023-05-14T13:55:21.161Z,97672.69
2023-05-14T13:57:48.453Z,97670.33
2023-05-14T14:00:16.249Z,97674.98
2023-05-14T14:02:43.574Z,97669.70
2023-05-14T14:05:10.828Z,97667.05
2023-05-14T14:07:44.197Z,97661.41
2023-05-14T14:10:12.477Z,97657.46
2023-05-14T14:12:40.162Z,97648.66
2023-05-14T14:15:08.324Z,97645.09
2023-05-14T14:17:35.708Z,97643.00
2023-05-14T14:20:09.921Z,97649.07
2023-05-14T14:22:37.738Z,97643.17
2023-05-14T14:26:06.753Z,97637.92
2023-05-14T14:28:42.087Z,97630.79
2023-05-14T14:31:50.233Z,97627.93
2023-05-14T14:34:59.620Z,97625.94
2023-05-14T14:37:33.412Z,97620.05
2023-05-14T14:40:21.686Z,97624.04
2023-05-14T14:43:31.910Z,97622.08
2023-05-14T14:47:19.084Z,97616.22
2023-05-14T14:50:50.226Z,97614.21
2023-05-14T14:54:34.255Z,97611.71
2023-05-14T14:58:07.383Z,97612.95
2023-05-14T15:01:56.533Z,97601.19
2023-05-14T15:05:23.785Z,97594.48
2023-05-14T15:08:53.348Z,97587.81
2023-05-14T15:12:40.708Z,97578.88
2023-05-14T15:16:10.085Z,97569.14
2023-05-14T15:19:32.729Z,97565.68
2023-05-14T15:22:11.959Z,97568.86
2023-05-14T15:25:01.546Z,97568.06
2023-05-14T15:28:28.953Z,97566.52
2023-05-14T15:31:23.454Z,97571.20
2023-05-14T15:34:50.303Z,97576.11
2023-05-14T15:38:12.736Z,97582.02
2023-05-14T15:41:50.801Z,97578.45
2023-05-14T15:44:52.129Z,97576.47
2023-05-14T15:48:19.491Z,97568.89
2023-05-14T15:51:56.622Z,97561.06
2023-05-14T15:55:27.782Z,97556.19
2023-05-14T15:58:26.370Z,97545.19
2023-05-14T16:01:58.696Z,97541.21
2023-05-14T16:05:45.722Z,97543.17
2023-05-14T16:09:17.208Z,97538.70
2023-05-14T16:12:49.724Z,97535.56
2023-05-14T16:16:36.995Z,97536.00
2023-05-14T16:20:23.968Z,97520.04
2023-05-14T16:23:51.828Z,97517.89
2023-05-14T16:27:31.854Z,97512.66
2023-05-14T16:30:49.488Z,97516.27
2023-05-14T16:34:24.668Z,97517.64
2023-05-14T16:37:52.674Z,97521.84
2023-05-14T16:41:42.206Z,97515.81
2023-05-14T16:45:09.181Z,97512.76
2023-05-14T16:48:36.495Z,97509.61
2023-05-14T16:52:04.889Z,97507.70
2023-05-14T16:55:51.729Z,97508.48
2023-05-14T16:59:18.695Z,97505.66
2023-05-14T17:02:43.011Z,97503.85
2023-05-14T17:06:25.910Z,97504.50
2023-05-14T17:09:52.916Z,97502.99
2023-05-14T17:13:40.111Z,97503.77
2023-05-14T17:50:13.536Z,97464.20
2023-05-14T17:52:42.684Z,97461.29
2023-05-14T17:55:10.305Z,97458.30
2023-05-14T17:57:38.107Z,97456.82
2023-05-14T18:00:06.034Z,97451.71
2023-05-14T18:02:33.494Z,97448.61
2023-05-14T18:05:00.940Z,97446.61
2023-05-14T18:07:28.517Z,97447.04
2023-05-14T18:09:56.472Z,97451.88
2023-05-14T18:12:26.004Z,97450.13
2023-05-14T18:14:53.754Z,97449.91
2023-05-14T18:17:21.364Z,97448.90
2023-05-14T18:19:49.221Z,97446.13
2023-05-14T18:22:16.756Z,97450.50
2023-05-14T18:24:44.834Z,97451.73
2023-05-14T18:27:12.530Z,97451.03
2023-05-14T18:29:40.298Z,97453.19
2023-05-14T18:32:07.915Z,97453.57
2023-05-14T18:34:36.686Z,97458.34
2023-05-14T18:37:04.190Z,97458.88
2023-05-14T18:39:32.284Z,97463.08
2023-05-14T18:41:59.703Z,97464.36
2023-05-14T18:44:26.955Z,97465.85
2023-05-14T18:46:56.333Z,97467.50
2023-05-14T18:49:24.445Z,97475.30
2023-05-14T18:51:51.962Z,97476.31
2023-05-14T18:54:19.425Z,97487.50
2023-05-14T18:56:47.753Z,97491.06
2023-05-14T18:59:15.620Z,97499.98
2023-05-14T19:01:42.963Z,97503.48
2023-05-14T19:04:10.446Z,97506.73
2023-05-14T19:06:40.718Z,97519.38
2023-05-14T19:09:08.678Z,97523.46
2023-05-14T19:11:36.087Z,97525.12
2023-05-14T19:14:03.341Z,97518.45
2023-05-14T19:16:30.655Z,97519.24
2023-05-14T19:18:58.140Z,97524.06
2023-05-14T19:21:25.496Z,97526.16
2023-05-14T19:23:53.448Z,97527.60
2023-05-14T19:26:21.999Z,97524.38
2023-05-14T19:28:49.382Z,97526.89
2023-05-14T19:31:16.702Z,97532.00
2023-05-14T19:33:44.353Z,97530.50
2023-05-14T19:36:12.237Z,97531.49
2023-05-14T19:38:40.093Z,97529.73
2023-05-14T19:41:07.316Z,97525.85
2023-05-14T19:43:34.623Z,97515.21
2023-05-14T19:46:02.739Z,97509.67
2023-05-14T19:48:32.032Z,97516.72
2023-05-14T19:50:59.719Z,97514.56
2023-05-14T19:53:30.216Z,97510.23
2023-05-14T19:55:57.950Z,97513.11
2023-05-14T19:58:26.471Z,97506.71
2023-05-14T20:00:57.937Z,97509.11
2023-05-14T20:03:28.912Z,97511.16
2023-05-14T20:05:56.935Z,97508.70
2023-05-14T20:08:25.379Z,97508.73
2023-05-14T20:10:53.239Z,97505.02
2023-05-14T20:13:21.063Z,97505.83
2023-05-14T20:15:49.730Z,97503.94
2023-05-14T20:18:17.289Z,97500.23
2023-05-14T20:20:44.811Z,97500.70
2023-05-14T20:23:12.347Z,97499.00
2023-05-14T20:25:40.464Z,97495.38
2023-05-14T20:28:07.720Z,97491.35
2023-05-14T20:30:35.016Z,97488.60
2023-05-14T20:33:02.387Z,97489.41
2023-05-14T20:35:30.153Z,97485.10
2023-05-14T20:37:57.958Z,97480.32
2023-05-14T20:40:25.739Z,97479.50
2023-05-14T20:42:53.644Z,97478.64
2023-05-14T20:45:20.997Z,97480.80
2023-05-14T20:47:48.328Z,97476.64
2023-05-14T20:50:15.853Z,97469.16
2023-05-14T20:52:43.141Z,97457.05
2023-05-14T20:55:10.713Z,97458.02
2023-05-14T20:57:38.020Z,97448.90
2023-05-14T21:00:09.199Z,97441.73
2023-05-14T21:02:36.813Z,97434.07
2023-05-14T21:05:04.560Z,97423.92
2023-05-14T21:07:32.150Z,97418.39
2023-05-14T21:09:59.763Z,97413.02
2023-05-14T21:12:27.174Z,97404.54
2023-05-14T21:14:54.296Z,97395.24
2023-05-14T21:17:21.634Z,97384.86
2023-05-14T21:19:48.979Z,97376.03
2023-05-14T21:22:16.305Z,97364.11
2023-05-14T21:24:43.543Z,97352.84
2023-05-14T21:27:11.338Z,97344.87
2023-05-14T21:29:39.085Z,97342.38
2023-05-14T21:32:06.763Z,97341.55
2023-05-14T21:34:34.248Z,97341.73
2023-05-14T21:37:01.499Z,97340.80
2023-05-14T21:39:28.927Z,97334.30
2023-05-14T21:41:56.602Z,97330.27
2023-05-14T21:44:24.080Z,97325.06
2023-05-14T21:46:51.513Z,97316.59
2023-05-14T21:49:19.798Z,97319.19
2023-05-14T21:51:47.099Z,97318.25
2023-05-14T21:54:14.440Z,97308.31
2023-05-14T21:56:41.616Z,97309.73
2023-05-14T21:59:08.846Z,97306.98
2023-05-14T22:01:45.917Z,97304.77
2023-05-14T22:04:23.102Z,97296.37
2023-05-14T22:06:50.322Z,97287.63
2023-05-14T22:09:17.545Z,97281.46
2023-05-14T22:11:45.031Z,97279.82
2023-05-14T22:14:12.236Z,97275.72
2023-05-14T22:16:39.436Z,97270.27
2023-05-14T22:19:06.939Z,97260.81
2023-05-14T22:21:34.216Z,97256.98
2023-05-14T22:24:01.446Z,97251.68
2023-05-14T22:26:28.680Z,97246.20
2023-05-14T22:28:57.988Z,97240.02
2023-05-14T22:31:25.230Z,97239.49
2023-05-14T22:33:53.579Z,97234.77
2023-05-14T22:36:20.884Z,97230.83
2023-05-14T22:38:48.054Z,97228.95
2023-05-14T22:41:17.815Z,97224.36
2023-05-14T22:43:44.982Z,97224.22
2023-05-14T22:46:12.200Z,97225.76
2023-05-14T22:48:39.911Z,97214.59
2023-05-14T22:51:07.772Z,97208.29
2023-05-14T22:53:34.882Z,97213.15
2023-05-14T22:56:02.300Z,97217.52
2023-05-14T22:58:29.683Z,97217.85
2023-05-14T23:00:57.189Z,97220.17
2023-05-14T23:03:24.752Z,97219.44
2023-05-14T23:05:52.675Z,97213.39
2023-05-14T23:08:19.778Z,97203.44
2023-05-14T23:10:47.111Z,97195.45
2023-05-14T23:13:14.245Z,97192.27
2023-05-14T23:15:41.543Z,97189.80
2023-05-14T23:18:09.178Z,97190.61
2023-05-14T23:20:36.346Z,97185.92
2023-05-14T23:23:03.640Z,97177.89
2023-05-14T23:25:33.037Z,97173.34
2023-05-14T23:28:00.212Z,97163.94
2023-05-14T23:30:27.381Z,97160.58
2023-05-14T23:32:54.644Z,97155.81
2023-05-14T23:35:21.899Z,97152.02
2023-05-14T23:37:51.396Z,97145.26
2023-05-14T23:40:18.715Z,97141.67
2023-05-14T23:42:45.883Z,97136.07
2023-05-14T23:45:14.088Z,97131.35
2023-05-14T23:47:41.907Z,97125.36
2023-05-14T23:50:09.389Z,97122.01
2023-05-14T23:52:36.622Z,97121.48
2023-05-14T23:55:04.760Z,97119.07
2023-05-14T23:57:32.069Z,97116.13
2023-05-14T23:59:59.328Z,97117.45
